createdAt,value
2022-09-22T00:01:13.270Z,97.43
2022-09-22T00:03:42.841Z,97.14
2022-09-22T00:06:11.824Z,97.45
2022-09-22T00:08:41.175Z,97.56
2022-09-22T00:11:13.707Z,98.16
2022-09-22T00:13:41.929Z,97.78
2022-09-22T00:16:11.914Z,97.67
2022-09-22T00:18:39.291Z,97.47
2022-09-22T00:21:09.101Z,97.01
2022-09-22T00:23:37.037Z,96.82
2022-09-22T00:26:10.321Z,97.08
2022-09-22T00:28:38.502Z,97.37
2022-09-22T00:31:07.288Z,97.54
2022-09-22T00:33:37.886Z,97.11
2022-09-22T00:36:05.912Z,97.29
2022-09-22T00:38:33.914Z,97.22
2022-09-22T00:41:01.764Z,96.90
2022-09-22T00:43:30.433Z,97.09
2022-09-22T00:46:00.757Z,97.15
2022-09-22T00:48:29.615Z,97.41
2022-09-22T00:51:01.190Z,97.45
2022-09-22T00:53:29.481Z,97.71
2022-09-22T00:55:59.157Z,97.88
2022-09-22T00:58:31.288Z,97.85
2022-09-22T01:00:58.905Z,97.72
2022-09-22T01:03:29.872Z,97.27
2022-09-22T01:06:01.265Z,97.95
2022-09-22T01:08:29.642Z,98.37
2022-09-22T01:10:57.802Z,98.20
2022-09-22T01:13:28.710Z,98.43
2022-09-22T01:16:07.956Z,97.99
2022-09-22T01:18:43.377Z,97.45
2022-09-22T01:21:26.985Z,97.95
2022-09-22T01:24:12.061Z,97.69
2022-09-22T01:26:55.840Z,97.64
2022-09-22T01:29:38.941Z,97.85
2022-09-22T01:32:13.292Z,97.69
2022-09-22T01:34:44.797Z,97.62
2022-09-22T01:37:18.033Z,97.16
2022-09-22T01:39:47.201Z,96.95
2022-09-22T01:42:23.519Z,97.43
2022-09-22T01:44:53.924Z,97.28
2022-09-22T01:47:24.998Z,96.76
2022-09-22T01:49:58.062Z,96.80
2022-09-22T01:52:28.196Z,97.08
2022-09-22T01:54:58.064Z,97.45
2022-09-22T01:57:31.605Z,97.68
2022-09-22T02:00:04.186Z,98.27
2022-09-22T02:02:43.799Z,97.86
2022-09-22T02:05:15.005Z,97.23
2022-09-22T02:07:46.663Z,97.12
2022-09-22T02:10:17.665Z,97.00
2022-09-22T02:12:45.120Z,97.13
2022-09-22T02:15:26.575Z,97.19
2022-09-22T02:17:58.190Z,96.42
2022-09-22T02:20:25.735Z,96.42
2022-09-22T02:22:53.135Z,96.31
2022-09-22T02:25:21.065Z,96.60
2022-09-22T02:27:48.965Z,96.49
2022-09-22T02:30:16.349Z,96.46
2022-09-22T02:32:46.837Z,96.22
2022-09-22T02:35:15.834Z,96.30
2022-09-22T02:37:49.541Z,96.95
2022-09-22T02:40:23.190Z,97.24
2022-09-22T02:42:55.338Z,97.78
2022-09-22T02:45:25.144Z,96.85
2022-09-22T02:47:57.103Z,97.22
2022-09-22T02:50:28.120Z,97.66
2022-09-22T02:52:59.219Z,97.60
2022-09-22T02:55:26.633Z,98.82
2022-09-22T02:57:54.397Z,98.52
2022-09-22T03:00:22.236Z,98.59
2022-09-22T03:02:49.712Z,99.05
2022-09-22T03:05:17.304Z,98.62
2022-09-22T03:07:46.049Z,98.22
2022-09-22T03:10:13.489Z,98.31
2022-09-22T03:13:09.166Z,97.80
2022-09-22T03:15:34.561Z,98.17
2022-09-22T03:18:01.950Z,97.92
2022-09-22T03:20:29.404Z,97.47
2022-09-22T03:22:58.147Z,97.47
2022-09-22T03:25:25.508Z,97.58
2022-09-22T03:27:54.857Z,97.45
2022-09-22T03:30:22.304Z,97.35
2022-09-22T03:32:49.726Z,96.20
2022-09-22T03:35:17.210Z,96.61
2022-09-22T03:37:44.607Z,96.25
2022-09-22T03:40:13.548Z,96.53
2022-09-22T03:42:40.996Z,97.33
2022-09-22T03:45:10.192Z,96.93
2022-09-22T03:47:37.535Z,96.81
2022-09-22T03:50:05.732Z,96.00
2022-09-22T03:52:33.369Z,96.20
2022-09-22T03:55:02.809Z,96.77
2022-09-22T03:57:31.520Z,97.35
2022-09-22T03:59:58.934Z,97.23
2022-09-22T04:02:26.491Z,97.28
2022-09-22T04:04:53.868Z,97.03
2022-09-22T04:07:21.251Z,96.73
2022-09-22T04:09:48.601Z,96.41
2022-09-22T04:12:16.235Z,97.03
2022-09-22T04:14:44.984Z,96.65
2022-09-22T04:17:13.165Z,96.94
2022-09-22T04:19:40.557Z,97.08
2022-09-22T04:22:07.892Z,97.38
2022-09-22T04:24:35.316Z,97.34
2022-09-22T04:27:19.003Z,96.80
2022-09-22T04:29:48.986Z,97.77
2022-09-22T04:32:16.882Z,97.04
2022-09-22T04:34:44.245Z,97.27
2022-09-22T04:37:11.875Z,97.43
2022-09-22T04:39:39.352Z,97.18
2022-09-22T04:42:08.808Z,97.21
2022-09-22T04:44:36.194Z,97.24
2022-09-22T04:47:05.769Z,97.25
2022-09-22T04:49:33.240Z,97.84
2022-09-22T04:52:00.661Z,97.87
2022-09-22T04:54:28.044Z,97.67
2022-09-22T04:56:55.391Z,97.86
2022-09-22T04:59:22.758Z,97.93
2022-09-22T05:01:50.118Z,97.86
2022-09-22T05:04:19.602Z,98.40
2022-09-22T05:06:46.937Z,98.79
2022-09-22T05:09:14.604Z,97.82
2022-09-22T05:11:41.993Z,98.80
2022-09-22T05:14:09.477Z,99.14
2022-09-22T05:16:37.086Z,98.84
2022-09-22T05:19:04.526Z,98.50
2022-09-22T05:21:33.195Z,98.40
2022-09-22T05:24:00.814Z,98.28
2022-09-22T05:26:28.349Z,98.57
2022-09-22T05:28:56.019Z,99.87
2022-09-22T05:31:23.466Z,99.65
2022-09-22T05:33:51.006Z,99.07
2022-09-22T05:36:18.361Z,98.87
2022-09-22T05:38:47.095Z,99.46
2022-09-22T05:41:14.418Z,98.91
2022-09-22T05:43:41.757Z,99.25
2022-09-22T05:46:09.253Z,99.00
2022-09-22T05:48:36.672Z,99.52
2022-09-22T05:51:04.085Z,99.57
2022-09-22T05:53:31.501Z,99.45
2022-09-22T05:56:00.911Z,99.25
2022-09-22T05:58:28.280Z,99.33
2022-09-22T06:00:57.506Z,99.47
2022-09-22T06:03:24.916Z,100.00
2022-09-22T06:05:52.284Z,100.00
2022-09-22T06:08:19.616Z,100.00
2022-09-22T06:10:48.945Z,100.00
2022-09-22T06:13:17.727Z,100.00
2022-09-22T06:15:46.430Z,100.00
2022-09-22T06:18:15.303Z,100.00
2022-09-22T06:20:43.557Z,100.00
2022-09-22T06:23:12.521Z,100.00
2022-09-22T06:25:40.193Z,100.00
2022-09-22T06:28:09.561Z,100.00
2022-09-22T06:30:39.998Z,100.00
2022-09-22T06:33:08.024Z,100.00
2022-09-22T06:35:37.535Z,100.00
2022-09-22T06:38:05.990Z,100.00
2022-09-22T06:40:33.801Z,100.00
2022-09-22T06:43:07.538Z,100.00
2022-09-22T06:45:35.291Z,100.00
2022-09-22T06:48:09.488Z,98.81
2022-09-22T06:50:38.050Z,97.88
2022-09-22T06:53:08.161Z,94.74
2022-09-22T06:55:37.053Z,89.53
2022-09-22T06:58:04.839Z,88.03
2022-09-22T07:00:33.503Z,86.95
2022-09-22T07:03:08.541Z,83.11
2022-09-22T07:05:37.425Z,80.89
2022-09-22T07:08:05.621Z,80.96
2022-09-22T07:10:37.640Z,79.94
2022-09-22T07:13:06.211Z,79.61
2022-09-22T07:15:35.565Z,76.73
2022-09-22T07:18:03.042Z,74.72
2022-09-22T07:20:35.601Z,72.15
2022-09-22T07:23:03.008Z,72.32
2022-09-22T07:25:35.766Z,73.76
2022-09-22T07:28:04.901Z,74.82
2022-09-22T07:30:32.396Z,71.94
2022-09-22T07:33:01.641Z,70.04
2022-09-22T07:35:29.204Z,69.94
2022-09-22T07:38:03.209Z,72.27
2022-09-22T07:40:30.607Z,70.16
2022-09-22T07:42:58.058Z,72.15
2022-09-22T07:45:25.474Z,70.76
2022-09-22T07:48:10.452Z,71.97
2022-09-22T07:50:37.873Z,68.70
2022-09-22T07:53:06.824Z,69.56
2022-09-22T07:55:36.714Z,67.67
2022-09-22T07:58:04.201Z,70.40
2022-09-22T08:00:33.037Z,70.31
2022-09-22T08:03:01.412Z,69.48
2022-09-22T08:05:30.117Z,66.60
2022-09-22T08:07:58.259Z,70.76
2022-09-22T08:10:27.362Z,67.40
2022-09-22T08:12:55.112Z,68.13
2022-09-22T08:15:26.793Z,71.06
2022-09-22T08:17:57.401Z,70.58
2022-09-22T08:20:26.220Z,74.04
2022-09-22T08:22:53.833Z,73.95
2022-09-22T08:25:21.274Z,73.87
2022-09-22T08:27:50.001Z,75.62
2022-09-22T08:30:18.823Z,73.83
2022-09-22T08:32:46.733Z,72.99
2022-09-22T08:35:14.272Z,73.15
2022-09-22T08:37:43.692Z,73.67
2022-09-22T08:40:17.987Z,74.09
2022-09-22T08:42:45.522Z,71.82
2022-09-22T08:45:26.776Z,74.38
2022-09-22T08:48:13.608Z,71.17
2022-09-22T08:51:06.296Z,72.46
2022-09-22T08:53:35.154Z,74.13
2022-09-22T08:56:06.923Z,71.89
2022-09-22T08:58:44.573Z,72.40
2022-09-22T09:01:23.119Z,73.33
2022-09-22T09:03:57.648Z,73.75
2022-09-22T09:06:32.028Z,73.10
2022-09-22T09:09:10.530Z,70.73
2022-09-22T09:11:49.645Z,71.81
2022-09-22T09:14:30.308Z,68.95
2022-09-22T09:17:02.474Z,69.44
2022-09-22T09:19:34.307Z,68.98
2022-09-22T09:22:05.701Z,67.84
2022-09-22T09:27:26.956Z,68.17
2022-09-22T09:30:03.025Z,68.49
2022-09-22T09:32:37.703Z,66.63
2022-09-22T09:35:06.591Z,65.13
2022-09-22T09:37:34.914Z,69.55
2022-09-22T09:40:05.101Z,64.59
2022-09-22T09:42:36.163Z,69.12
2022-09-22T09:45:04.164Z,63.60
2022-09-22T09:47:50.047Z,66.20
2022-09-22T09:50:18.717Z,61.29
2022-09-22T09:52:47.298Z,62.11
2022-09-22T09:55:26.739Z,62.88
2022-09-22T09:58:09.335Z,57.51
2022-09-22T10:00:52.817Z,60.21
2022-09-22T10:03:28.506Z,61.52
2022-09-22T10:06:02.627Z,59.37
2022-09-22T10:08:36.349Z,59.90
2022-09-22T10:11:04.935Z,62.18
2022-09-22T10:13:36.331Z,56.44
2022-09-22T10:16:20.281Z,56.08
2022-09-22T10:18:50.229Z,54.44
2022-09-22T10:21:19.206Z,58.56
2022-09-22T10:23:47.584Z,57.65
2022-09-22T10:26:17.830Z,56.20
2022-09-22T10:28:47.117Z,55.78
2022-09-22T10:42:59.470Z,51.11
2022-09-22T10:45:36.938Z,47.64
2022-09-22T10:48:10.259Z,45.28
2022-09-22T10:51:03.486Z,50.72
2022-09-22T10:53:37.551Z,47.70
2022-09-22T10:56:12.353Z,47.74
2022-09-22T10:58:55.193Z,47.13
2022-09-22T11:01:33.785Z,48.72
2022-09-22T11:04:11.966Z,42.76
2022-09-22T11:07:24.073Z,43.49
2022-09-22T11:10:14.113Z,44.34
2022-09-22T11:12:47.906Z,46.23
2022-09-22T11:15:30.744Z,46.44
2022-09-22T11:18:21.511Z,46.59
2022-09-22T11:20:52.243Z,46.51
2022-09-22T11:23:46.479Z,45.82
2022-09-22T11:26:29.859Z,45.91
2022-09-22T11:29:10.973Z,44.64
2022-09-22T11:31:45.287Z,50.30
2022-09-22T11:34:34.132Z,52.17
2022-09-22T11:37:25.519Z,48.49
2022-09-22T11:40:08.556Z,42.67
2022-09-22T11:42:41.453Z,43.49
2022-09-22T11:45:16.993Z,44.12
2022-09-22T11:47:52.585Z,42.32
2022-09-22T11:50:40.780Z,42.20
2022-09-22T11:53:47.802Z,43.49
2022-09-22T11:56:32.994Z,44.32
2022-09-22T11:59:04.005Z,42.21
2022-09-22T12:01:33.273Z,40.67
2022-09-22T12:04:08.983Z,44.10
2022-09-22T12:06:41.172Z,40.81
2022-09-22T12:09:13.588Z,44.25
2022-09-22T12:11:41.821Z,40.33
2022-09-22T12:14:13.622Z,37.78
2022-09-22T12:16:45.674Z,41.51
2022-09-22T12:19:21.804Z,40.89
2022-09-22T12:21:53.458Z,42.20
2022-09-22T12:24:21.202Z,40.32
2022-09-22T12:26:49.972Z,39.45
2022-09-22T12:29:27.148Z,40.63
2022-09-22T12:31:56.594Z,39.91
2022-09-22T12:34:28.004Z,42.80
2022-09-22T12:36:59.310Z,43.26
2022-09-22T12:39:28.884Z,35.17
2022-09-22T12:41:59.981Z,32.63
2022-09-22T12:44:29.665Z,33.68
2022-09-22T12:47:02.175Z,35.04
2022-09-22T12:49:31.669Z,37.99
2022-09-22T12:51:59.222Z,37.45
2022-09-22T12:54:47.367Z,37.80
2022-09-22T12:57:27.583Z,39.93
2022-09-22T13:00:07.485Z,37.85
2022-09-22T13:02:42.881Z,37.32
2022-09-22T13:05:33.913Z,35.52
2022-09-22T13:08:01.674Z,34.13
2022-09-22T13:10:41.387Z,33.88
2022-09-22T13:13:19.756Z,34.74
2022-09-22T13:15:59.277Z,31.93
2022-09-22T13:18:31.577Z,32.67
2022-09-22T13:21:01.744Z,33.68
2022-09-22T13:23:29.756Z,32.06
2022-09-22T13:26:07.501Z,37.88
2022-09-22T13:28:35.056Z,37.79
2022-09-22T13:31:06.260Z,38.27
2022-09-22T13:33:35.626Z,38.18
2022-09-22T13:36:07.073Z,39.42
2022-09-22T13:38:36.898Z,39.06
2022-09-22T13:41:05.249Z,38.94
2022-09-22T13:43:35.083Z,42.15
2022-09-22T13:46:03.293Z,43.64
2022-09-22T13:48:33.881Z,44.80
2022-09-22T13:51:05.486Z,46.23
2022-09-22T13:53:33.373Z,46.06
2022-09-22T13:56:01.026Z,46.12
2022-09-22T13:58:34.369Z,45.79
2022-09-22T14:01:13.046Z,46.93
2022-09-22T14:03:41.090Z,49.54
2022-09-22T14:06:13.482Z,48.41
2022-09-22T14:08:41.611Z,49.73
2022-09-22T14:11:16.331Z,47.30
2022-09-22T14:13:45.127Z,47.41
2022-09-22T14:16:15.995Z,46.01
2022-09-22T14:18:46.605Z,45.27
2022-09-22T14:21:15.561Z,40.02
2022-09-22T14:23:44.916Z,39.45
2022-09-22T14:26:27.517Z,42.10
2022-09-22T14:28:57.687Z,40.33
2022-09-22T14:31:29.098Z,37.15
2022-09-22T14:33:57.236Z,37.95
2022-09-22T14:36:26.726Z,41.03
2022-09-22T14:39:08.194Z,40.93
2022-09-22T14:41:38.096Z,38.04
2022-09-22T14:44:27.248Z,41.81
2022-09-22T14:46:56.292Z,42.14
2022-09-22T14:49:37.357Z,42.71
2022-09-22T14:52:08.476Z,43.34
2022-09-22T14:54:36.013Z,44.72
2022-09-22T14:57:07.123Z,47.56
2022-09-22T14:59:54.318Z,47.51
2022-09-22T15:02:34.223Z,50.71
2022-09-22T15:05:03.595Z,51.03
2022-09-22T15:07:35.634Z,51.86
2022-09-22T15:10:06.401Z,51.00
2022-09-22T15:12:39.754Z,52.74
2022-09-22T15:15:19.307Z,51.57
2022-09-22T15:18:05.714Z,55.00
2022-09-22T15:20:42.431Z,59.57
2022-09-22T15:23:15.738Z,60.95
2022-09-22T15:25:43.612Z,60.73
2022-09-22T15:28:15.742Z,62.33
2022-09-22T15:30:44.550Z,66.07
2022-09-22T15:33:14.565Z,66.71
2022-09-22T15:35:44.531Z,66.14
2022-09-22T15:38:21.704Z,67.03
2022-09-22T15:40:49.119Z,62.65
2022-09-22T15:43:20.649Z,56.63
2022-09-22T15:45:49.379Z,54.19
2022-09-22T15:48:23.285Z,53.18
2022-09-22T15:50:51.017Z,50.96
2022-09-22T15:53:19.797Z,50.24
2022-09-22T15:55:47.839Z,52.66
2022-09-22T15:58:16.745Z,52.34
2022-09-22T16:00:44.193Z,52.29
2022-09-22T16:03:15.322Z,51.83
2022-09-22T16:05:44.647Z,52.73
2022-09-22T16:08:15.943Z,52.78
2022-09-22T16:10:45.342Z,54.41
2022-09-22T16:13:12.929Z,56.43
2022-09-22T16:15:40.495Z,59.20
2022-09-22T16:18:08.410Z,58.49
2022-09-22T16:20:37.889Z,58.92
2022-09-22T16:23:06.310Z,55.91
2022-09-22T16:25:33.923Z,54.50
2022-09-22T16:28:03.270Z,56.47
2022-09-22T16:30:30.622Z,59.64
2022-09-22T16:32:58.017Z,58.11
2022-09-22T16:35:25.501Z,59.96
2022-09-22T16:37:55.777Z,59.61
2022-09-22T16:40:24.688Z,57.95
2022-09-22T16:42:52.456Z,59.47
2022-09-22T16:45:41.155Z,61.65
2022-09-22T16:48:08.553Z,60.01
2022-09-22T16:50:37.553Z,60.52
2022-09-22T16:53:07.150Z,61.52
2022-09-22T16:55:37.315Z,61.88
2022-09-22T16:58:07.219Z,62.91
2022-09-22T17:00:39.207Z,64.67
2022-09-22T17:03:06.682Z,67.94
2022-09-22T17:05:34.198Z,69.50
2022-09-22T17:08:06.471Z,71.27
2022-09-22T17:10:35.472Z,72.72
2022-09-22T17:13:04.758Z,73.04
2022-09-22T17:15:35.712Z,75.09
2022-09-22T17:18:05.085Z,76.15
2022-09-22T17:20:32.478Z,76.77
2022-09-22T17:22:59.885Z,77.11
2022-09-22T17:25:28.905Z,77.39
2022-09-22T17:27:57.160Z,78.27
2022-09-22T17:30:24.843Z,79.70
2022-09-22T17:32:53.440Z,81.18
2022-09-22T17:35:22.169Z,81.03
2022-09-22T17:37:52.088Z,81.61
2022-09-22T17:40:19.571Z,82.66
2022-09-22T17:42:47.618Z,83.01
2022-09-22T17:45:15.654Z,85.00
2022-09-22T17:48:02.437Z,86.30
2022-09-22T17:50:49.043Z,85.77
2022-09-22T17:53:33.717Z,87.08
2022-09-22T17:56:04.986Z,88.20
2022-09-22T17:58:32.728Z,88.00
2022-09-22T18:01:00.145Z,87.94
2022-09-22T18:03:27.805Z,88.62
2022-09-22T18:05:57.249Z,89.90
2022-09-22T18:08:25.077Z,89.74
2022-09-22T18:10:52.405Z,89.69
2022-09-22T18:13:19.756Z,90.09
2022-09-22T18:15:47.274Z,90.31
2022-09-22T18:18:14.810Z,91.80
2022-09-22T18:20:42.733Z,92.00
2022-09-22T18:23:12.334Z,92.22
2022-09-22T18:25:41.236Z,91.71
2022-09-22T18:28:08.657Z,92.04
2022-09-22T18:30:40.064Z,92.44
2022-09-22T18:33:07.419Z,92.41
2022-09-22T18:35:34.825Z,93.50
2022-09-22T18:38:02.251Z,93.67
2022-09-22T18:40:32.312Z,94.21
2022-09-22T18:42:59.739Z,93.44
2022-09-22T18:45:27.727Z,93.58
2022-09-22T18:47:58.984Z,93.19
2022-09-22T18:50:26.958Z,93.96
2022-09-22T18:52:56.633Z,93.50
2022-09-22T18:55:24.016Z,93.58
2022-09-22T18:57:53.991Z,92.82
2022-09-22T19:00:22.084Z,92.78
2022-09-22T19:02:50.210Z,92.77
2022-09-22T19:05:18.009Z,94.07
2022-09-22T19:07:48.254Z,94.21
2022-09-22T19:10:18.763Z,94.41
2022-09-22T19:12:46.339Z,94.87
2022-09-22T19:15:18.484Z,95.15
2022-09-22T19:17:49.116Z,95.30
2022-09-22T19:20:22.321Z,95.96
2022-09-22T19:22:50.273Z,95.80
2022-09-22T19:25:19.977Z,96.21
2022-09-22T19:27:47.362Z,96.04
2022-09-22T19:30:20.548Z,95.40
2022-09-22T19:32:50.753Z,95.46
2022-09-22T19:35:18.349Z,94.97
2022-09-22T19:37:45.805Z,95.02
2022-09-22T19:40:18.461Z,94.53
2022-09-22T19:42:46.006Z,94.36
2022-09-22T19:45:13.549Z,93.68
2022-09-22T19:47:44.521Z,93.40
2022-09-22T19:50:11.937Z,92.69
2022-09-22T19:52:39.448Z,92.86
2022-09-22T19:55:07.877Z,92.66
2022-09-22T19:57:40.968Z,92.47
2022-09-22T20:00:10.177Z,92.93
2022-09-22T20:02:40.493Z,92.45
2022-09-22T20:05:17.673Z,93.26
2022-09-22T20:07:45.061Z,92.36
2022-09-22T20:10:13.204Z,92.09
2022-09-22T20:12:40.726Z,92.62
2022-09-22T20:15:08.832Z,92.33
2022-09-22T20:17:36.186Z,92.49
2022-09-22T20:20:03.625Z,91.68
2022-09-22T20:22:32.960Z,92.13
2022-09-22T20:25:01.950Z,91.92
2022-09-22T20:27:31.481Z,91.94
2022-09-22T20:30:02.372Z,92.84
2022-09-22T20:32:32.009Z,92.98
2022-09-22T20:34:59.790Z,92.79
2022-09-22T20:37:27.371Z,93.82
2022-09-22T20:39:57.384Z,94.41
2022-09-22T20:42:25.662Z,95.61
2022-09-22T20:44:53.314Z,95.04
2022-09-22T20:47:21.849Z,95.31
2022-09-22T20:49:51.916Z,95.20
2022-09-22T20:52:20.987Z,96.07
2022-09-22T20:54:49.232Z,95.43
2022-09-22T20:57:18.882Z,94.61
2022-09-22T20:59:47.419Z,94.10
2022-09-22T21:02:15.878Z,92.83
2022-09-22T21:04:43.634Z,91.03
2022-09-22T21:07:11.405Z,89.54
2022-09-22T21:09:56.931Z,89.12
2022-09-22T21:12:31.093Z,87.35
2022-09-22T21:14:59.261Z,85.73
2022-09-22T21:17:27.575Z,83.02
2022-09-22T21:19:57.008Z,79.16
2022-09-22T21:22:24.707Z,80.42
2022-09-22T21:24:52.491Z,79.21
2022-09-22T21:27:20.478Z,78.66
2022-09-22T21:29:51.703Z,78.74
2022-09-22T21:32:19.900Z,77.54
2022-09-22T21:34:47.466Z,74.96
2022-09-22T21:37:15.441Z,76.15
2022-09-22T21:39:43.112Z,75.43
2022-09-22T21:42:10.743Z,74.50
2022-09-22T21:44:39.062Z,74.54
2022-09-22T21:47:08.029Z,74.24
2022-09-22T21:49:35.501Z,74.53
2022-09-22T21:52:03.023Z,74.62
2022-09-22T21:54:31.042Z,73.99
2022-09-22T21:56:58.465Z,74.35
2022-09-22T21:59:25.874Z,74.23
2022-09-22T22:01:53.274Z,73.70
2022-09-22T22:04:22.037Z,73.63
2022-09-22T22:06:49.409Z,72.56
2022-09-22T22:09:18.631Z,72.97
2022-09-22T22:11:48.995Z,72.56
2022-09-22T22:14:18.334Z,72.83
2022-09-22T22:16:46.982Z,73.14
2022-09-22T22:19:17.055Z,74.09
2022-09-22T22:21:46.645Z,74.72
2022-09-22T22:24:28.412Z,75.38
2022-09-22T22:26:57.390Z,75.91
2022-09-22T22:29:26.933Z,77.58
2022-09-22T22:31:54.648Z,78.38
2022-09-22T22:34:25.466Z,80.25
2022-09-22T22:36:54.928Z,81.44
2022-09-22T22:39:22.753Z,82.39
2022-09-22T22:41:50.163Z,82.99
2022-09-22T22:44:18.835Z,82.56
2022-09-22T22:46:46.748Z,84.87
2022-09-22T22:49:14.568Z,84.13
2022-09-22T22:51:43.019Z,85.52
2022-09-22T22:54:12.526Z,86.69
2022-09-22T22:56:42.433Z,86.96
2022-09-22T22:59:11.223Z,88.30
2022-09-22T23:01:40.202Z,88.04
2022-09-22T23:04:08.824Z,90.37
2022-09-22T23:06:38.782Z,89.47
2022-09-22T23:09:08.113Z,89.99
2022-09-22T23:11:39.626Z,91.84
2022-09-22T23:14:11.255Z,93.44
2022-09-22T23:16:40.523Z,94.29
2022-09-22T23:19:10.778Z,93.35
2022-09-22T23:21:40.674Z,93.20
2022-09-22T23:24:08.881Z,93.85
2022-09-22T23:26:38.077Z,93.35
2022-09-22T23:29:06.612Z,94.23
2022-09-22T23:31:34.289Z,93.91
2022-09-22T23:34:01.701Z,94.73
2022-09-22T23:36:30.165Z,94.58
2022-09-22T23:39:01.815Z,94.25
2022-09-22T23:41:29.301Z,94.07
2022-09-22T23:43:58.062Z,93.93
2022-09-22T23:46:25.460Z,93.58
2022-09-22T23:48:53.262Z,93.18
2022-09-22T23:51:20.653Z,93.47
2022-09-22T23:53:48.167Z,93.81
2022-09-22T23:56:15.688Z,94.66
2022-09-22T23:58:43.092Z,93.93
